createdAt,value
2022-10-17T00:02:00.125Z,100967.56
2022-10-17T00:05:05.137Z,100972.72
2022-10-17T00:08:08.436Z,100969.50
2022-10-17T00:11:17.163Z,100982.94
2022-10-17T00:14:20.351Z,100983.59
2022-10-17T00:17:23.597Z,100980.56
2022-10-17T00:20:30.427Z,100978.31
2022-10-17T00:23:34.713Z,100981.25
2022-10-17T00:26:37.929Z,100983.84
2022-10-17T00:29:41.370Z,100980.97
2022-10-17T00:32:44.727Z,100986.03
2022-10-17T00:35:49.319Z,100978.41
2022-10-17T00:38:54.162Z,100981.56
2022-10-17T00:41:57.383Z,100984.06
2022-10-17T00:45:06.559Z,100981.44
2022-10-17T00:48:12.464Z,100984.88
2022-10-17T00:51:17.977Z,100984.97
2022-10-17T00:54:25.561Z,100984.06
2022-10-17T00:57:31.256Z,100983.75
2022-10-17T01:00:34.711Z,100984.66
2022-10-17T01:03:38.105Z,100982.66
2022-10-17T01:06:42.724Z,100985.34
2022-10-17T01:09:48.262Z,100985.66
2022-10-17T01:13:05.690Z,100987.44
2022-10-17T01:16:18.164Z,100990.56
2022-10-17T01:19:44.489Z,100988.03
2022-10-17T01:22:56.663Z,100993.41
2022-10-17T01:26:15.054Z,100992.56
2022-10-17T01:29:38.840Z,100997.81
2022-10-17T01:32:49.043Z,100992.31
2022-10-17T01:36:01.707Z,100995.78
2022-10-17T01:39:17.188Z,100992.00
2022-10-17T01:42:27.003Z,100993.84
2022-10-17T01:45:34.996Z,100996.16
2022-10-17T01:48:45.239Z,100996.50
2022-10-17T01:51:54.034Z,100995.19
2022-10-17T01:55:02.867Z,101005.72
2022-10-17T01:58:10.409Z,100997.94
2022-10-17T02:01:14.622Z,101004.16
2022-10-17T02:04:19.588Z,101011.50
2022-10-17T02:07:22.808Z,101010.56
2022-10-17T02:10:37.726Z,101009.41
2022-10-17T02:13:55.732Z,101019.09
2022-10-17T02:17:08.301Z,101017.53
2022-10-17T02:20:21.590Z,101021.72
2022-10-17T02:23:33.735Z,101017.34
2022-10-17T02:26:42.929Z,101015.69
2022-10-17T02:29:50.173Z,101018.81
2022-10-17T02:33:00.989Z,101025.25
2022-10-17T02:36:23.612Z,101026.75
2022-10-17T02:39:30.065Z,101030.81
2022-10-17T02:42:34.067Z,101036.88
2022-10-17T02:45:41.664Z,101044.13
2022-10-17T02:48:51.511Z,101049.28
2022-10-17T02:52:03.006Z,101049.97
2022-10-17T02:55:13.472Z,101056.31
2022-10-17T02:58:22.600Z,101054.72
2022-10-17T03:01:26.679Z,101057.88
2022-10-17T03:04:29.943Z,101054.63
2022-10-17T03:07:34.589Z,101053.31
2022-10-17T03:10:37.769Z,101061.16
2022-10-17T03:13:42.743Z,101059.41
2022-10-17T03:16:46.684Z,101064.63
2022-10-17T03:19:52.251Z,101061.53
2022-10-17T03:22:57.134Z,101069.75
2022-10-17T03:26:03.954Z,101073.31
2022-10-17T03:29:07.641Z,101077.25
2022-10-17T03:32:12.299Z,101070.69
2022-10-17T03:35:16.103Z,101060.81
2022-10-17T03:38:24.927Z,101059.75
2022-10-17T03:41:28.643Z,101058.19
2022-10-17T03:44:31.956Z,101069.28
2022-10-17T03:47:36.163Z,101061.19
2022-10-17T03:50:39.713Z,101057.47
2022-10-17T03:53:45.952Z,101064.50
2022-10-17T03:56:49.910Z,101067.59
2022-10-17T03:59:55.668Z,101066.75
2022-10-17T04:02:59.659Z,101070.97
2022-10-17T04:06:05.134Z,101067.03
2022-10-17T04:09:12.688Z,101066.91
2022-10-17T04:12:28.776Z,101061.19
2022-10-17T04:15:32.783Z,101072.97
2022-10-17T04:18:36.293Z,101064.78
2022-10-17T04:21:39.723Z,101076.31
2022-10-17T04:24:45.989Z,101065.91
2022-10-17T04:28:10.320Z,101080.69
2022-10-17T04:31:16.353Z,101080.13
2022-10-17T04:34:40.677Z,101091.19
2022-10-17T04:37:44.101Z,101089.06
2022-10-17T04:40:54.892Z,101086.47
2022-10-17T04:43:58.271Z,101088.84
2022-10-17T04:47:03.382Z,101093.94
2022-10-17T04:50:07.644Z,101100.84
2022-10-17T04:53:12.324Z,101113.75
2022-10-17T04:56:18.899Z,101109.06
2022-10-17T04:59:22.622Z,101110.53
2022-10-17T05:02:33.733Z,101107.03
2022-10-17T05:05:40.052Z,101125.19
2022-10-17T05:08:44.087Z,101127.81
2022-10-17T05:11:49.149Z,101138.34
2022-10-17T05:14:52.530Z,101138.50
2022-10-17T05:17:57.231Z,101145.00
2022-10-17T05:21:04.556Z,101143.75
2022-10-17T05:24:09.760Z,101153.94
2022-10-17T05:27:16.282Z,101165.44
2022-10-17T05:30:19.834Z,101168.94
2022-10-17T05:33:25.839Z,101160.28
2022-10-17T05:36:29.987Z,101171.75
2022-10-17T05:39:35.070Z,101179.72
2022-10-17T05:42:41.320Z,101177.72
2022-10-17T05:45:45.664Z,101182.66
2022-10-17T05:48:55.749Z,101180.97
2022-10-17T05:51:59.227Z,101189.41
2022-10-17T05:55:02.639Z,101195.19
2022-10-17T05:58:07.581Z,101196.19
2022-10-17T06:01:15.789Z,101203.09
2022-10-17T06:04:19.319Z,101194.25
2022-10-17T06:07:22.783Z,101207.91
2022-10-17T06:10:26.324Z,101205.53
2022-10-17T06:13:32.664Z,101208.81
2022-10-17T06:16:38.215Z,101215.78
2022-10-17T06:19:42.245Z,101216.50
2022-10-17T06:22:45.574Z,101223.16
2022-10-17T06:25:54.695Z,101221.94
2022-10-17T06:28:59.600Z,101230.13
2022-10-17T06:32:09.880Z,101228.16
2022-10-17T06:35:18.289Z,101229.78
2022-10-17T06:38:21.791Z,101237.06
2022-10-17T06:41:27.560Z,101239.66
2022-10-17T06:44:32.825Z,101243.63
2022-10-17T06:47:54.495Z,101238.31
2022-10-17T06:51:17.079Z,101229.50
2022-10-17T06:54:30.851Z,101233.94
2022-10-17T06:57:43.164Z,101239.75
2022-10-17T07:01:20.588Z,101236.91
2022-10-17T07:04:25.866Z,101239.38
2022-10-17T07:07:32.187Z,101244.13
2022-10-17T07:10:38.468Z,101238.22
2022-10-17T07:13:44.059Z,101249.00
2022-10-17T07:16:48.850Z,101248.38
2022-10-17T07:19:58.453Z,101247.56
2022-10-17T07:23:02.357Z,101258.81
2022-10-17T07:26:08.661Z,101264.06
2022-10-17T07:29:13.900Z,101261.63
2022-10-17T07:32:26.892Z,101258.75
2022-10-17T07:35:30.172Z,101268.38
2022-10-17T07:38:33.763Z,101264.47
2022-10-17T07:41:36.987Z,101266.00
2022-10-17T07:44:41.328Z,101261.34
2022-10-17T07:47:47.761Z,101265.25
2022-10-17T07:50:52.814Z,101262.47
2022-10-17T07:53:56.562Z,101256.34
2022-10-17T07:56:59.922Z,101257.28
2022-10-17T08:00:03.395Z,101251.47
2022-10-17T08:03:17.141Z,101252.47
2022-10-17T08:06:20.438Z,101246.16
2022-10-17T08:09:23.872Z,101246.31
2022-10-17T08:12:27.625Z,101246.66
2022-10-17T08:15:32.141Z,101238.22
2022-10-17T08:18:37.363Z,101241.50
2022-10-17T08:21:41.634Z,101245.78
2022-10-17T08:24:46.340Z,101238.81
2022-10-17T08:27:49.828Z,101243.41
2022-10-17T08:30:53.088Z,101246.13
2022-10-17T08:33:57.707Z,101256.94
2022-10-17T08:37:00.929Z,101244.78
2022-10-17T08:40:04.733Z,101241.50
2022-10-17T08:43:23.399Z,101240.28
2022-10-17T08:46:32.629Z,101250.88
2022-10-17T08:49:47.269Z,101243.84
2022-10-17T08:52:53.814Z,101241.50
2022-10-17T08:55:57.689Z,101243.34
2022-10-17T08:59:00.973Z,101238.91
2022-10-17T09:02:22.187Z,101240.63
2022-10-17T09:05:36.142Z,101237.78
2022-10-17T09:08:48.320Z,101233.44
2022-10-17T09:12:04.275Z,101231.38
2022-10-17T09:15:42.918Z,101229.13
2022-10-17T09:18:54.288Z,101226.91
2022-10-17T09:22:02.754Z,101219.97
2022-10-17T09:25:11.933Z,101223.09
2022-10-17T09:28:21.301Z,101220.59
2022-10-17T09:31:27.699Z,101221.94
2022-10-17T09:34:33.488Z,101218.09
2022-10-17T09:37:39.197Z,101215.09
2022-10-17T09:40:42.645Z,101218.66
2022-10-17T09:43:47.821Z,101210.81
2022-10-17T09:47:29.121Z,101207.72
2022-10-17T09:50:35.504Z,101204.63
2022-10-17T09:53:42.464Z,101204.56
2022-10-17T09:57:00.945Z,101207.88
2022-10-17T10:00:08.172Z,101199.25
2022-10-17T10:03:22.673Z,101194.72
2022-10-17T10:06:25.865Z,101186.59
2022-10-17T10:09:34.854Z,101187.69
2022-10-17T10:12:40.985Z,101181.28
2022-10-17T10:15:46.046Z,101179.81
2022-10-17T10:18:51.121Z,101174.03
2022-10-17T10:21:57.401Z,101169.59
2022-10-17T10:25:16.569Z,101165.50
2022-10-17T10:28:20.117Z,101172.16
2022-10-17T10:31:35.543Z,101160.34
2022-10-17T10:34:42.423Z,101163.19
2022-10-17T10:37:48.920Z,101160.09
2022-10-17T10:40:56.636Z,101154.38
2022-10-17T10:43:59.938Z,101149.38
2022-10-17T10:47:26.264Z,101142.19
2022-10-17T10:50:34.752Z,101142.81
2022-10-17T10:53:45.618Z,101142.53
2022-10-17T10:56:53.683Z,101140.59
2022-10-17T11:00:02.018Z,101138.94
2022-10-17T11:03:13.208Z,101134.09
2022-10-17T11:06:23.177Z,101125.91
2022-10-17T11:09:35.181Z,101127.34
2022-10-17T11:15:58.927Z,101121.97
2022-10-17T11:19:13.716Z,101124.06
2022-10-17T11:22:22.059Z,101120.31
2022-10-17T11:25:35.543Z,101115.81
2022-10-17T11:28:40.343Z,101112.59
2022-10-17T11:31:48.561Z,101111.13
2022-10-17T11:34:57.442Z,101104.91
2022-10-17T11:38:14.793Z,101102.22
2022-10-17T11:41:22.041Z,101092.22
2022-10-17T11:44:31.108Z,101089.34
2022-10-17T11:47:45.417Z,101088.56
2022-10-17T11:54:30.181Z,101079.75
2022-10-17T11:57:53.747Z,101074.09
2022-10-17T12:01:11.601Z,101076.22
2022-10-17T12:04:27.491Z,101070.84
2022-10-17T12:07:40.346Z,101070.16
2022-10-17T12:10:50.326Z,101070.31
2022-10-17T12:13:56.329Z,101066.94
2022-10-17T12:17:01.716Z,101068.59
2022-10-17T12:20:34.170Z,101068.97
2022-10-17T12:23:39.006Z,101061.06
2022-10-17T12:26:42.231Z,101069.44
2022-10-17T12:29:45.441Z,101060.84
2022-10-17T12:33:07.426Z,101062.56
2022-10-17T12:36:49.895Z,101058.09
2022-10-17T12:39:53.093Z,101065.78
2022-10-17T12:42:56.330Z,101061.72
2022-10-17T12:46:00.642Z,101055.25
2022-10-17T12:49:22.861Z,101057.69
2022-10-17T12:53:03.693Z,101060.03
2022-10-17T12:56:07.748Z,101064.19
2022-10-17T12:59:17.129Z,101058.19
2022-10-17T13:02:23.368Z,101061.34
2022-10-17T13:05:31.936Z,101054.38
2022-10-17T13:08:39.089Z,101055.75
2022-10-17T13:11:43.839Z,101058.88
2022-10-17T13:14:49.194Z,101059.28
2022-10-17T13:18:00.432Z,101061.03
2022-10-17T13:21:07.468Z,101066.88
2022-10-17T13:24:25.263Z,101062.84
2022-10-17T13:27:30.124Z,101062.16
2022-10-17T13:30:35.359Z,101058.34
2022-10-17T13:33:40.179Z,101059.44
2022-10-17T13:36:49.137Z,101052.91
2022-10-17T13:39:55.340Z,101056.25
2022-10-17T13:43:02.204Z,101054.25
2022-10-17T13:46:25.416Z,101057.28
2022-10-17T13:49:34.737Z,101053.91
2022-10-17T13:52:39.516Z,101055.34
2022-10-17T13:56:09.448Z,101044.03
2022-10-17T13:59:24.047Z,101044.47
2022-10-17T14:02:28.928Z,101044.53
2022-10-17T14:05:32.141Z,101047.34
2022-10-17T14:08:38.196Z,101042.22
2022-10-17T14:11:43.059Z,101041.66
2022-10-17T14:15:12.759Z,101045.91
2022-10-17T14:18:21.855Z,101042.91
2022-10-17T14:21:42.917Z,101041.31
2022-10-17T14:24:49.188Z,101049.47
2022-10-17T14:28:02.546Z,101052.13
2022-10-17T14:31:33.654Z,101053.78
2022-10-17T14:34:38.968Z,101052.06
2022-10-17T14:37:44.947Z,101052.91
2022-10-17T14:41:00.307Z,101052.91
2022-10-17T14:44:16.766Z,101049.81
2022-10-17T14:47:42.686Z,101056.66
2022-10-17T14:51:07.906Z,101058.84
2022-10-17T14:54:23.022Z,101061.28
2022-10-17T14:57:41.962Z,101062.59
2022-10-17T15:00:45.236Z,101066.00
2022-10-17T15:03:48.448Z,101069.53
2022-10-17T15:06:55.899Z,101067.13
2022-10-17T15:09:59.120Z,101064.81
2022-10-17T15:16:31.822Z,101076.78
2022-10-17T15:19:35.008Z,101067.06
2022-10-17T15:22:38.233Z,101064.03
2022-10-17T15:25:41.484Z,101066.69
2022-10-17T15:28:47.540Z,101065.19
2022-10-17T15:31:50.843Z,101065.41
2022-10-17T15:34:54.114Z,101065.09
2022-10-17T15:37:57.607Z,101063.44
2022-10-17T15:41:00.767Z,101069.34
2022-10-17T15:44:05.561Z,101075.28
2022-10-17T15:47:16.562Z,101073.53
2022-10-17T15:50:20.250Z,101080.44
2022-10-17T15:53:24.209Z,101076.50
2022-10-17T15:56:30.310Z,101073.53
2022-10-17T15:59:36.232Z,101082.66
2022-10-17T16:02:39.403Z,101079.19
2022-10-17T16:05:42.692Z,101087.66
2022-10-17T16:08:45.981Z,101090.13
2022-10-17T16:11:49.232Z,101086.81
2022-10-17T16:14:53.867Z,101085.84
2022-10-17T16:18:01.587Z,101090.59
2022-10-17T16:21:07.551Z,101094.91
2022-10-17T16:24:12.197Z,101093.75
2022-10-17T16:27:15.417Z,101096.38
2022-10-17T16:33:29.068Z,101094.41
2022-10-17T16:36:32.244Z,101106.13
2022-10-17T16:39:35.635Z,101112.41
2022-10-17T16:42:38.871Z,101114.53
2022-10-17T16:45:43.472Z,101120.16
2022-10-17T16:48:47.535Z,101122.47
2022-10-17T16:51:50.810Z,101122.63
2022-10-17T16:54:54.003Z,101123.28
2022-10-17T16:57:57.170Z,101125.75
2022-10-17T17:01:03.706Z,101121.84
2022-10-17T17:04:06.891Z,101135.72
2022-10-17T17:07:10.109Z,101137.41
2022-10-17T17:10:13.318Z,101140.38
2022-10-17T17:13:16.583Z,101133.72
2022-10-17T17:16:23.659Z,101141.84
2022-10-17T17:19:26.912Z,101152.56
2022-10-17T17:22:30.100Z,101145.16
2022-10-17T17:25:35.802Z,101149.47
2022-10-17T17:28:39.774Z,101151.84
2022-10-17T17:31:44.528Z,101150.53
2022-10-17T17:34:47.917Z,101151.47
2022-10-17T17:37:53.846Z,101152.44
2022-10-17T17:40:57.205Z,101153.97
2022-10-17T17:44:01.546Z,101164.28
2022-10-17T17:47:06.440Z,101159.56
2022-10-17T17:50:10.158Z,101157.41
2022-10-17T17:53:15.475Z,101165.88
2022-10-17T17:56:20.232Z,101170.03
2022-10-17T17:59:23.450Z,101169.84
2022-10-17T18:02:28.369Z,101171.97
2022-10-17T18:05:32.125Z,101178.41
2022-10-17T18:08:35.790Z,101176.22
2022-10-17T18:11:39.671Z,101176.81
2022-10-17T18:14:42.823Z,101182.31
2022-10-17T18:17:47.484Z,101176.28
2022-10-17T18:20:50.703Z,101190.09
2022-10-17T18:23:53.913Z,101187.06
2022-10-17T18:26:59.938Z,101189.75
2022-10-17T18:30:03.302Z,101190.78
2022-10-17T18:33:07.851Z,101189.75
2022-10-17T18:36:13.691Z,101187.13
2022-10-17T18:39:16.842Z,101194.97
2022-10-17T18:42:20.538Z,101196.22
2022-10-17T18:45:23.772Z,101192.13
2022-10-17T18:48:28.325Z,101197.19
2022-10-17T18:51:31.642Z,101199.06
2022-10-17T18:54:34.928Z,101204.53
2022-10-17T18:57:38.099Z,101211.16
2022-10-17T19:00:41.317Z,101221.13
2022-10-17T19:03:47.432Z,101213.63
2022-10-17T19:06:50.660Z,101203.69
2022-10-17T19:09:53.972Z,101212.56
2022-10-17T19:12:57.159Z,101214.13
2022-10-17T19:16:00.390Z,101227.03
2022-10-17T19:19:07.370Z,101226.81
2022-10-17T19:22:10.531Z,101234.16
2022-10-17T19:25:13.846Z,101237.72
2022-10-17T19:28:17.064Z,101235.78
2022-10-17T19:31:26.207Z,101242.38
2022-10-17T19:34:31.529Z,101232.72
2022-10-17T19:37:35.354Z,101241.34
2022-10-17T19:40:41.903Z,101241.63
2022-10-17T19:43:45.607Z,101238.84
2022-10-17T19:46:49.397Z,101240.19
2022-10-17T19:49:54.229Z,101241.44
2022-10-17T19:52:57.732Z,101241.47
2022-10-17T19:56:01.365Z,101238.69
2022-10-17T19:59:05.240Z,101237.69
2022-10-17T20:02:08.625Z,101233.38
2022-10-17T20:05:18.453Z,101234.22
2022-10-17T20:08:22.580Z,101221.34
2022-10-17T20:11:27.421Z,101233.00
2022-10-17T20:14:30.688Z,101259.06
2022-10-17T20:20:39.406Z,101252.22
2022-10-17T20:23:43.583Z,101262.94
2022-10-17T20:26:47.067Z,101240.34
2022-10-17T20:29:50.391Z,101259.63
2022-10-17T20:32:56.524Z,101240.59
2022-10-17T20:36:01.130Z,101239.34
2022-10-17T20:39:05.033Z,101237.78
2022-10-17T20:42:08.240Z,101236.38
2022-10-17T20:45:12.346Z,101235.59
2022-10-17T20:48:17.205Z,101233.91
2022-10-17T20:51:22.657Z,101236.25
2022-10-17T20:54:26.165Z,101248.72
2022-10-17T20:57:29.621Z,101240.56
2022-10-17T21:00:33.122Z,101241.53
2022-10-17T21:03:39.795Z,101248.50
2022-10-17T21:06:48.212Z,101243.84
2022-10-17T21:09:51.579Z,101248.47
2022-10-17T21:12:54.761Z,101261.47
2022-10-17T21:16:06.002Z,101246.25
2022-10-17T21:19:09.298Z,101255.19
2022-10-17T21:22:13.903Z,101255.13
2022-10-17T21:25:17.223Z,101264.50
2022-10-17T21:28:20.394Z,101255.94
2022-10-17T21:31:25.642Z,101260.13
2022-10-17T21:34:28.931Z,101268.38
2022-10-17T21:37:33.590Z,101259.72
2022-10-17T21:40:36.761Z,101255.56
2022-10-17T21:43:40.276Z,101253.84
2022-10-17T21:46:44.288Z,101256.31
2022-10-17T21:49:47.540Z,101258.63
2022-10-17T21:52:52.145Z,101266.75
2022-10-17T21:55:55.384Z,101264.09
2022-10-17T21:58:59.827Z,101267.63
2022-10-17T22:02:03.192Z,101264.38
2022-10-17T22:05:07.020Z,101258.59
2022-10-17T22:08:11.686Z,101264.69
2022-10-17T22:11:21.586Z,101264.41
2022-10-17T22:14:26.284Z,101246.94
2022-10-17T22:17:29.643Z,101250.75
2022-10-17T22:20:35.558Z,101247.00
2022-10-17T22:23:40.371Z,101249.66
2022-10-17T22:26:44.658Z,101248.31
2022-10-17T22:29:47.937Z,101249.00
2022-10-17T22:32:51.151Z,101252.53
2022-10-17T22:35:54.556Z,101245.66
2022-10-17T22:38:59.137Z,101252.22
2022-10-17T22:42:02.305Z,101254.72
2022-10-17T22:45:06.158Z,101258.75
2022-10-17T22:48:10.384Z,101244.44
2022-10-17T22:51:14.148Z,101249.16
2022-10-17T22:54:18.992Z,101250.72
2022-10-17T22:57:22.317Z,101259.25
2022-10-17T23:00:25.497Z,101256.78
2022-10-17T23:03:30.115Z,101253.78
2022-10-17T23:06:33.389Z,101247.91
2022-10-17T23:09:38.136Z,101246.59
2022-10-17T23:12:41.447Z,101245.59
2022-10-17T23:15:45.073Z,101240.91
2022-10-17T23:18:48.276Z,101243.91
2022-10-17T23:21:51.495Z,101245.25
2022-10-17T23:24:56.121Z,101248.38
2022-10-17T23:27:59.329Z,101246.38
2022-10-17T23:31:10.698Z,101237.06
2022-10-17T23:34:14.069Z,101239.69
2022-10-17T23:37:17.292Z,101245.91
2022-10-17T23:40:22.005Z,101242.25
2022-10-17T23:43:26.615Z,101237.06
2022-10-17T23:46:29.815Z,101236.00
2022-10-17T23:49:33.052Z,101238.88
2022-10-17T23:52:36.316Z,101236.72
2022-10-17T23:55:40.940Z,101233.50
2022-10-17T23:58:44.231Z,101231.13
